sensor_id;sensor_type;location;lat;lon;timestamp;P1;durP1;ratioP1;P2;durP2;ratioP2
12814;SDS011;6472;52.328;13.070;2023-02-15T00:02:04;15.60;;;7.60;;
12814;SDS011;6472;52.328;13.070;2023-02-15T00:04:33;13.20;;;6.33;;
12814;SDS011;6472;52.328;13.070;2023-02-15T00:07:18;13.40;;;5.43;;
12814;SDS011;6472;52.328;13.070;2023-02-15T00:09:47;10.83;;;5.90;;
12814;SDS011;6472;52.328;13.070;2023-02-15T00:12:15;12.30;;;7.50;;
12814;SDS011;6472;52.328;13.070;2023-02-15T00:14:43;14.53;;;6.43;;
12814;SDS011;6472;52.328;13.070;2023-02-15T00:17:11;12.13;;;6.13;;
12814;SDS011;6472;52.328;13.070;2023-02-15T00:19:39;13.87;;;6.17;;
12814;SDS011;6472;52.328;13.070;2023-02-15T00:22:07;22.07;;;8.23;;
12814;SDS011;6472;52.328;13.070;2023-02-15T00:24:37;13.40;;;5.37;;
12814;SDS011;6472;52.328;13.070;2023-02-15T00:27:05;15.33;;;7.53;;
12814;SDS011;6472;52.328;13.070;2023-02-15T00:29:35;13.40;;;5.90;;
12814;SDS011;6472;52.328;13.070;2023-02-15T00:32:03;14.63;;;6.50;;
12814;SDS011;6472;52.328;13.070;2023-02-15T00:34:32;18.17;;;7.73;;
12814;SDS011;6472;52.328;13.070;2023-02-15T00:37:00;17.83;;;7.43;;
12814;SDS011;6472;52.328;13.070;2023-02-15T00:39:28;13.87;;;6.67;;
12814;SDS011;6472;52.328;13.070;2023-02-15T00:41:57;18.40;;;7.53;;
12814;SDS011;6472;52.328;13.070;2023-02-15T00:44:25;18.87;;;7.63;;
12814;SDS011;6472;52.328;13.070;2023-02-15T00:46:53;16.03;;;7.23;;
12814;SDS011;6472;52.328;13.070;2023-02-15T00:49:21;14.67;;;7.03;;
12814;SDS011;6472;52.328;13.070;2023-02-15T00:51:49;14.33;;;7.00;;
12814;SDS011;6472;52.328;13.070;2023-02-15T00:54:17;19.83;;;8.60;;
12814;SDS011;6472;52.328;13.070;2023-02-15T00:56:45;11.27;;;5.47;;
12814;SDS011;6472;52.328;13.070;2023-02-15T00:59:15;13.63;;;6.43;;
12814;SDS011;6472;52.328;13.070;2023-02-15T01:01:42;17.50;;;6.93;;
12814;SDS011;6472;52.328;13.070;2023-02-15T01:04:10;13.27;;;6.80;;
12814;SDS011;6472;52.328;13.070;2023-02-15T01:06:38;15.67;;;6.07;;
12814;SDS011;6472;52.328;13.070;2023-02-15T01:09:06;17.33;;;8.30;;
12814;SDS011;6472;52.328;13.070;2023-02-15T01:11:34;15.47;;;6.20;;
12814;SDS011;6472;52.328;13.070;2023-02-15T01:14:02;13.10;;;7.07;;
12814;SDS011;6472;52.328;13.070;2023-02-15T01:16:32;17.33;;;7.90;;
12814;SDS011;6472;52.328;13.070;2023-02-15T01:19:00;15.13;;;7.20;;
12814;SDS011;6472;52.328;13.070;2023-02-15T01:21:29;16.20;;;8.93;;
12814;SDS011;6472;52.328;13.070;2023-02-15T01:24:00;16.53;;;6.97;;
12814;SDS011;6472;52.328;13.070;2023-02-15T01:26:28;24.27;;;10.40;;
12814;SDS011;6472;52.328;13.070;2023-02-15T01:28:56;19.63;;;7.80;;
12814;SDS011;6472;52.328;13.070;2023-02-15T01:31:24;22.00;;;7.63;;
12814;SDS011;6472;52.328;13.070;2023-02-15T01:33:54;16.77;;;7.70;;
12814;SDS011;6472;52.328;13.070;2023-02-15T01:36:22;14.30;;;6.60;;
12814;SDS011;6472;52.328;13.070;2023-02-15T01:38:50;17.63;;;7.93;;
12814;SDS011;6472;52.328;13.070;2023-02-15T01:41:19;19.93;;;8.60;;
12814;SDS011;6472;52.328;13.070;2023-02-15T01:43:49;22.07;;;8.30;;
12814;SDS011;6472;52.328;13.070;2023-02-15T01:46:20;20.67;;;8.90;;
12814;SDS011;6472;52.328;13.070;2023-02-15T01:48:54;22.10;;;8.93;;
12814;SDS011;6472;52.328;13.070;2023-02-15T01:51:27;16.30;;;7.90;;
12814;SDS011;6472;52.328;13.070;2023-02-15T01:53:59;22.27;;;8.87;;
12814;SDS011;6472;52.328;13.070;2023-02-15T01:56:33;14.23;;;8.33;;
12814;SDS011;6472;52.328;13.070;2023-02-15T01:59:06;16.33;;;7.10;;
12814;SDS011;6472;52.328;13.070;2023-02-15T02:01:36;20.13;;;8.90;;
12814;SDS011;6472;52.328;13.070;2023-02-15T02:04:09;19.87;;;8.17;;
12814;SDS011;6472;52.328;13.070;2023-02-15T02:06:42;19.00;;;8.33;;
12814;SDS011;6472;52.328;13.070;2023-02-15T02:09:13;19.83;;;7.70;;
12814;SDS011;6472;52.328;13.070;2023-02-15T02:11:41;17.73;;;7.90;;
12814;SDS011;6472;52.328;13.070;2023-02-15T02:14:13;13.00;;;7.43;;
12814;SDS011;6472;52.328;13.070;2023-02-15T02:16:45;19.33;;;7.37;;
12814;SDS011;6472;52.328;13.070;2023-02-15T02:19:26;21.93;;;8.23;;
12814;SDS011;6472;52.328;13.070;2023-02-15T02:22:33;15.73;;;7.63;;
12814;SDS011;6472;52.328;13.070;2023-02-15T02:25:34;21.33;;;7.83;;
12814;SDS011;6472;52.328;13.070;2023-02-15T02:28:25;17.13;;;8.03;;
12814;SDS011;6472;52.328;13.070;2023-02-15T02:31:11;14.17;;;6.80;;
12814;SDS011;6472;52.328;13.070;2023-02-15T02:34:01;17.60;;;6.60;;
12814;SDS011;6472;52.328;13.070;2023-02-15T02:36:33;13.90;;;7.07;;
12814;SDS011;6472;52.328;13.070;2023-02-15T02:39:12;13.67;;;6.43;;
12814;SDS011;6472;52.328;13.070;2023-02-15T02:41:50;11.17;;;7.73;;
12814;SDS011;6472;52.328;13.070;2023-02-15T02:44:25;12.57;;;7.33;;
12814;SDS011;6472;52.328;13.070;2023-02-15T02:46:57;16.77;;;7.70;;
12814;SDS011;6472;52.328;13.070;2023-02-15T02:49:34;20.93;;;7.63;;
12814;SDS011;6472;52.328;13.070;2023-02-15T02:52:04;14.13;;;7.73;;
12814;SDS011;6472;52.328;13.070;2023-02-15T02:54:34;17.90;;;6.97;;
12814;SDS011;6472;52.328;13.070;2023-02-15T02:57:03;15.77;;;7.20;;
12814;SDS011;6472;52.328;13.070;2023-02-15T02:59:36;15.13;;;6.43;;
12814;SDS011;6472;52.328;13.070;2023-02-15T03:02:08;17.33;;;6.93;;
12814;SDS011;6472;52.328;13.070;2023-02-15T03:04:43;21.70;;;7.33;;
12814;SDS011;6472;52.328;13.070;2023-02-15T03:07:15;15.77;;;6.37;;
12814;SDS011;6472;52.328;13.070;2023-02-15T03:09:49;13.03;;;7.73;;
12814;SDS011;6472;52.328;13.070;2023-02-15T03:12:19;15.00;;;7.20;;
12814;SDS011;6472;52.328;13.070;2023-02-15T03:14:50;14.80;;;6.77;;
12814;SDS011;6472;52.328;13.070;2023-02-15T03:17:21;18.37;;;7.90;;
12814;SDS011;6472;52.328;13.070;2023-02-15T03:19:55;16.90;;;7.70;;
12814;SDS011;6472;52.328;13.070;2023-02-15T03:22:28;21.73;;;8.10;;
12814;SDS011;6472;52.328;13.070;2023-02-15T03:25:00;16.37;;;6.90;;
12814;SDS011;6472;52.328;13.070;2023-02-15T03:27:33;24.20;;;8.47;;
12814;SDS011;6472;52.328;13.070;2023-02-15T03:30:06;21.03;;;7.70;;
12814;SDS011;6472;52.328;13.070;2023-02-15T03:32:36;13.23;;;6.67;;
12814;SDS011;6472;52.328;13.070;2023-02-15T03:35:07;22.37;;;8.30;;
12814;SDS011;6472;52.328;13.070;2023-02-15T03:37:36;22.80;;;8.93;;
12814;SDS011;6472;52.328;13.070;2023-02-15T03:40:09;17.20;;;9.53;;
12814;SDS011;6472;52.328;13.070;2023-02-15T03:43:00;21.07;;;7.13;;
12814;SDS011;6472;52.328;13.070;2023-02-15T03:45:34;16.47;;;7.13;;
12814;SDS011;6472;52.328;13.070;2023-02-15T03:48:21;19.60;;;7.43;;
12814;SDS011;6472;52.328;13.070;2023-02-15T03:50:53;18.20;;;7.13;;
12814;SDS011;6472;52.328;13.070;2023-02-15T03:53:43;20.70;;;8.70;;
12814;SDS011;6472;52.328;13.070;2023-02-15T03:56:13;26.10;;;9.23;;
12814;SDS011;6472;52.328;13.070;2023-02-15T03:58:41;16.07;;;7.63;;
12814;SDS011;6472;52.328;13.070;2023-02-15T04:01:27;19.70;;;7.40;;
12814;SDS011;6472;52.328;13.070;2023-02-15T04:04:25;20.67;;;8.07;;
12814;SDS011;6472;52.328;13.070;2023-02-15T04:06:59;17.40;;;7.20;;
12814;SDS011;6472;52.328;13.070;2023-02-15T04:09:28;19.83;;;8.27;;
12814;SDS011;6472;52.328;13.070;2023-02-15T04:12:13;15.53;;;7.53;;
12814;SDS011;6472;52.328;13.070;2023-02-15T04:14:41;14.43;;;7.80;;
12814;SDS011;6472;52.328;13.070;2023-02-15T04:17:27;15.67;;;7.67;;
12814;SDS011;6472;52.328;13.070;2023-02-15T04:19:55;20.93;;;9.00;;
12814;SDS011;6472;52.328;13.070;2023-02-15T04:22:42;12.87;;;6.40;;
12814;SDS011;6472;52.328;13.070;2023-02-15T04:25:27;17.90;;;6.43;;
12814;SDS011;6472;52.328;13.070;2023-02-15T04:27:55;15.37;;;7.30;;
12814;SDS011;6472;52.328;13.070;2023-02-15T04:30:24;18.57;;;8.10;;
12814;SDS011;6472;52.328;13.070;2023-02-15T04:32:53;17.17;;;6.63;;
12814;SDS011;6472;52.328;13.070;2023-02-15T04:35:21;19.23;;;9.37;;
12814;SDS011;6472;52.328;13.070;2023-02-15T04:37:50;15.63;;;7.43;;
12814;SDS011;6472;52.328;13.070;2023-02-15T04:40:18;21.73;;;10.20;;
12814;SDS011;6472;52.328;13.070;2023-02-15T04:42:47;23.13;;;9.67;;
12814;SDS011;6472;52.328;13.070;2023-02-15T04:45:15;26.40;;;10.40;;
12814;SDS011;6472;52.328;13.070;2023-02-15T04:47:43;29.67;;;10.57;;
12814;SDS011;6472;52.328;13.070;2023-02-15T04:50:12;22.97;;;8.33;;
12814;SDS011;6472;52.328;13.070;2023-02-15T04:52:40;19.33;;;8.93;;
12814;SDS011;6472;52.328;13.070;2023-02-15T04:55:09;16.73;;;7.33;;
12814;SDS011;6472;52.328;13.070;2023-02-15T04:57:37;15.33;;;8.17;;
12814;SDS011;6472;52.328;13.070;2023-02-15T05:00:06;21.23;;;6.93;;
12814;SDS011;6472;52.328;13.070;2023-02-15T05:02:35;17.03;;;7.13;;
12814;SDS011;6472;52.328;13.070;2023-02-15T05:05:04;18.43;;;8.80;;
12814;SDS011;6472;52.328;13.070;2023-02-15T05:07:33;19.00;;;6.70;;
12814;SDS011;6472;52.328;13.070;2023-02-15T05:10:01;21.40;;;10.47;;
12814;SDS011;6472;52.328;13.070;2023-02-15T05:12:31;20.60;;;8.73;;
12814;SDS011;6472;52.328;13.070;2023-02-15T05:14:59;16.07;;;7.93;;
12814;SDS011;6472;52.328;13.070;2023-02-15T05:17:27;19.17;;;7.90;;
12814;SDS011;6472;52.328;13.070;2023-02-15T05:19:54;16.77;;;7.97;;
12814;SDS011;6472;52.328;13.070;2023-02-15T05:22:22;14.13;;;7.30;;
12814;SDS011;6472;52.328;13.070;2023-02-15T05:24:50;24.30;;;8.87;;
12814;SDS011;6472;52.328;13.070;2023-02-15T05:27:37;15.87;;;7.17;;
12814;SDS011;6472;52.328;13.070;2023-02-15T05:30:23;25.57;;;9.47;;
12814;SDS011;6472;52.328;13.070;2023-02-15T05:32:52;19.70;;;7.67;;
12814;SDS011;6472;52.328;13.070;2023-02-15T05:35:20;18.53;;;6.97;;
12814;SDS011;6472;52.328;13.070;2023-02-15T05:37:48;12.60;;;7.63;;
12814;SDS011;6472;52.328;13.070;2023-02-15T05:40:16;15.53;;;7.17;;
12814;SDS011;6472;52.328;13.070;2023-02-15T05:42:45;14.97;;;6.43;;
12814;SDS011;6472;52.328;13.070;2023-02-15T05:45:13;15.03;;;7.03;;
12814;SDS011;6472;52.328;13.070;2023-02-15T05:47:41;16.20;;;6.33;;
12814;SDS011;6472;52.328;13.070;2023-02-15T05:50:09;22.10;;;9.07;;
12814;SDS011;6472;52.328;13.070;2023-02-15T05:52:38;22.23;;;8.53;;
12814;SDS011;6472;52.328;13.070;2023-02-15T05:55:06;18.30;;;8.40;;
12814;SDS011;6472;52.328;13.070;2023-02-15T05:57:35;15.60;;;6.87;;
12814;SDS011;6472;52.328;13.070;2023-02-15T06:00:05;15.80;;;7.60;;
12814;SDS011;6472;52.328;13.070;2023-02-15T06:02:35;15.07;;;6.40;;
12814;SDS011;6472;52.328;13.070;2023-02-15T06:05:04;17.63;;;8.23;;
12814;SDS011;6472;52.328;13.070;2023-02-15T06:07:32;17.43;;;8.13;;
12814;SDS011;6472;52.328;13.070;2023-02-15T06:10:01;22.00;;;9.43;;
12814;SDS011;6472;52.328;13.070;2023-02-15T06:12:29;18.77;;;8.60;;
12814;SDS011;6472;52.328;13.070;2023-02-15T06:14:57;16.47;;;8.20;;
12814;SDS011;6472;52.328;13.070;2023-02-15T06:17:27;17.83;;;7.33;;
12814;SDS011;6472;52.328;13.070;2023-02-15T06:19:55;16.37;;;7.53;;
12814;SDS011;6472;52.328;13.070;2023-02-15T06:22:23;14.07;;;7.17;;
12814;SDS011;6472;52.328;13.070;2023-02-15T06:24:51;31.17;;;9.77;;
12814;SDS011;6472;52.328;13.070;2023-02-15T06:27:19;21.57;;;8.73;;
12814;SDS011;6472;52.328;13.070;2023-02-15T06:29:47;17.90;;;7.90;;
12814;SDS011;6472;52.328;13.070;2023-02-15T06:32:17;15.67;;;8.00;;
12814;SDS011;6472;52.328;13.070;2023-02-15T06:34:46;21.70;;;9.40;;
12814;SDS011;6472;52.328;13.070;2023-02-15T06:37:14;19.00;;;8.13;;
12814;SDS011;6472;52.328;13.070;2023-02-15T06:39:42;20.60;;;8.90;;
12814;SDS011;6472;52.328;13.070;2023-02-15T06:42:10;20.37;;;8.50;;
12814;SDS011;6472;52.328;13.070;2023-02-15T06:44:38;16.10;;;8.73;;
12814;SDS011;6472;52.328;13.070;2023-02-15T06:47:06;18.67;;;9.07;;
12814;SDS011;6472;52.328;13.070;2023-02-15T06:49:34;22.37;;;9.43;;
12814;SDS011;6472;52.328;13.070;2023-02-15T06:52:04;16.80;;;8.37;;
12814;SDS011;6472;52.328;13.070;2023-02-15T06:54:32;14.03;;;7.63;;
12814;SDS011;6472;52.328;13.070;2023-02-15T06:57:00;21.07;;;6.97;;
12814;SDS011;6472;52.328;13.070;2023-02-15T06:59:28;12.00;;;6.30;;
12814;SDS011;6472;52.328;13.070;2023-02-15T07:01:56;23.13;;;10.07;;
12814;SDS011;6472;52.328;13.070;2023-02-15T07:04:24;22.67;;;9.50;;
12814;SDS011;6472;52.328;13.070;2023-02-15T07:06:55;24.37;;;10.53;;
12814;SDS011;6472;52.328;13.070;2023-02-15T07:09:24;23.57;;;8.57;;
12814;SDS011;6472;52.328;13.070;2023-02-15T07:11:52;13.23;;;7.03;;
12814;SDS011;6472;52.328;13.070;2023-02-15T07:14:38;30.37;;;9.10;;
12814;SDS011;6472;52.328;13.070;2023-02-15T07:17:06;25.37;;;10.57;;
12814;SDS011;6472;52.328;13.070;2023-02-15T07:19:54;15.17;;;7.57;;
12814;SDS011;6472;52.328;13.070;2023-02-15T07:22:22;21.87;;;8.37;;
12814;SDS011;6472;52.328;13.070;2023-02-15T07:24:52;14.80;;;6.67;;
12814;SDS011;6472;52.328;13.070;2023-02-15T07:27:21;22.27;;;9.73;;
12814;SDS011;6472;52.328;13.070;2023-02-15T07:29:49;21.67;;;8.83;;
12814;SDS011;6472;52.328;13.070;2023-02-15T07:32:17;18.77;;;8.70;;
12814;SDS011;6472;52.328;13.070;2023-02-15T07:34:45;19.90;;;8.00;;
12814;SDS011;6472;52.328;13.070;2023-02-15T07:37:13;25.50;;;11.13;;
12814;SDS011;6472;52.328;13.070;2023-02-15T07:39:41;21.50;;;9.93;;
12814;SDS011;6472;52.328;13.070;2023-02-15T07:42:10;27.77;;;11.17;;
12814;SDS011;6472;52.328;13.070;2023-02-15T07:44:38;25.67;;;10.23;;
12814;SDS011;6472;52.328;13.070;2023-02-15T07:47:06;15.90;;;8.80;;
12814;SDS011;6472;52.328;13.070;2023-02-15T07:49:34;18.83;;;9.03;;
12814;SDS011;6472;52.328;13.070;2023-02-15T07:52:02;26.83;;;8.83;;
12814;SDS011;6472;52.328;13.070;2023-02-15T07:54:31;25.57;;;9.60;;
12814;SDS011;6472;52.328;13.070;2023-02-15T07:57:00;20.07;;;9.63;;
12814;SDS011;6472;52.328;13.070;2023-02-15T07:59:29;28.20;;;10.33;;
12814;SDS011;6472;52.328;13.070;2023-02-15T08:01:57;24.63;;;11.17;;
12814;SDS011;6472;52.328;13.070;2023-02-15T08:04:25;25.57;;;10.33;;
12814;SDS011;6472;52.328;13.070;2023-02-15T08:06:53;28.20;;;10.37;;
12814;SDS011;6472;52.328;13.070;2023-02-15T08:09:21;28.50;;;11.47;;
12814;SDS011;6472;52.328;13.070;2023-02-15T08:11:49;17.93;;;8.77;;
12814;SDS011;6472;52.328;13.070;2023-02-15T08:14:18;21.43;;;9.10;;
12814;SDS011;6472;52.328;13.070;2023-02-15T08:16:49;26.37;;;10.80;;
12814;SDS011;6472;52.328;13.070;2023-02-15T08:19:19;24.40;;;9.43;;
12814;SDS011;6472;52.328;13.070;2023-02-15T08:21:49;20.30;;;9.43;;
12814;SDS011;6472;52.328;13.070;2023-02-15T08:24:20;21.90;;;9.17;;
12814;SDS011;6472;52.328;13.070;2023-02-15T08:26:49;38.03;;;13.27;;
12814;SDS011;6472;52.328;13.070;2023-02-15T08:29:19;25.60;;;10.60;;
12814;SDS011;6472;52.328;13.070;2023-02-15T08:31:52;27.90;;;11.60;;
12814;SDS011;6472;52.328;13.070;2023-02-15T08:34:21;25.57;;;10.33;;
12814;SDS011;6472;52.328;13.070;2023-02-15T08:36:49;26.33;;;12.57;;
12814;SDS011;6472;52.328;13.070;2023-02-15T08:39:17;32.60;;;11.50;;
12814;SDS011;6472;52.328;13.070;2023-02-15T08:41:45;27.83;;;12.07;;
12814;SDS011;6472;52.328;13.070;2023-02-15T08:44:15;27.37;;;13.50;;
12814;SDS011;6472;52.328;13.070;2023-02-15T08:46:47;31.97;;;14.27;;
12814;SDS011;6472;52.328;13.070;2023-02-15T08:49:17;30.17;;;13.50;;
12814;SDS011;6472;52.328;13.070;2023-02-15T08:51:47;27.33;;;12.67;;
12814;SDS011;6472;52.328;13.070;2023-02-15T08:54:16;32.10;;;13.90;;
12814;SDS011;6472;52.328;13.070;2023-02-15T08:56:45;30.17;;;11.90;;
12814;SDS011;6472;52.328;13.070;2023-02-15T08:59:14;28.27;;;12.27;;
12814;SDS011;6472;52.328;13.070;2023-02-15T09:01:44;32.43;;;14.57;;
12814;SDS011;6472;52.328;13.070;2023-02-15T09:04:16;32.00;;;13.63;;
12814;SDS011;6472;52.328;13.070;2023-02-15T09:06:45;33.53;;;13.00;;
12814;SDS011;6472;52.328;13.070;2023-02-15T09:09:15;34.27;;;14.73;;
12814;SDS011;6472;52.328;13.070;2023-02-15T09:11:44;32.57;;;13.13;;
12814;SDS011;6472;52.328;13.070;2023-02-15T09:14:14;30.53;;;14.47;;
12814;SDS011;6472;52.328;13.070;2023-02-15T09:16:44;28.73;;;12.87;;
12814;SDS011;6472;52.328;13.070;2023-02-15T09:19:18;25.93;;;12.37;;
12814;SDS011;6472;52.328;13.070;2023-02-15T09:21:47;28.37;;;13.30;;
12814;SDS011;6472;52.328;13.070;2023-02-15T09:24:15;26.60;;;13.00;;
12814;SDS011;6472;52.328;13.070;2023-02-15T09:26:45;29.03;;;14.23;;
12814;SDS011;6472;52.328;13.070;2023-02-15T09:29:14;29.70;;;13.40;;
12814;SDS011;6472;52.328;13.070;2023-02-15T09:31:44;35.97;;;15.10;;
12814;SDS011;6472;52.328;13.070;2023-02-15T09:34:15;32.93;;;15.03;;
12814;SDS011;6472;52.328;13.070;2023-02-15T09:36:46;31.27;;;13.03;;
12814;SDS011;6472;52.328;13.070;2023-02-15T09:39:15;28.50;;;13.30;;
12814;SDS011;6472;52.328;13.070;2023-02-15T09:41:56;36.10;;;14.47;;
12814;SDS011;6472;52.328;13.070;2023-02-15T09:44:56;32.20;;;14.13;;
12814;SDS011;6472;52.328;13.070;2023-02-15T09:47:48;31.37;;;13.70;;
12814;SDS011;6472;52.328;13.070;2023-02-15T09:50:33;33.83;;;14.27;;
12814;SDS011;6472;52.328;13.070;2023-02-15T09:53:12;32.23;;;14.47;;
12814;SDS011;6472;52.328;13.070;2023-02-15T09:55:57;29.17;;;15.40;;
12814;SDS011;6472;52.328;13.070;2023-02-15T09:58:33;36.53;;;15.00;;
12814;SDS011;6472;52.328;13.070;2023-02-15T10:01:10;33.60;;;14.67;;
12814;SDS011;6472;52.328;13.070;2023-02-15T10:03:50;35.00;;;15.97;;
12814;SDS011;6472;52.328;13.070;2023-02-15T10:06:34;33.27;;;15.77;;
12814;SDS011;6472;52.328;13.070;2023-02-15T10:09:17;30.70;;;14.13;;
12814;SDS011;6472;52.328;13.070;2023-02-15T10:12:11;26.40;;;14.07;;
12814;SDS011;6472;52.328;13.070;2023-02-15T10:15:04;44.70;;;14.60;;
12814;SDS011;6472;52.328;13.070;2023-02-15T10:17:51;29.93;;;14.77;;
12814;SDS011;6472;52.328;13.070;2023-02-15T10:20:33;26.67;;;14.07;;
12814;SDS011;6472;52.328;13.070;2023-02-15T10:23:20;26.30;;;13.47;;
12814;SDS011;6472;52.328;13.070;2023-02-15T10:26:07;28.23;;;14.00;;
12814;SDS011;6472;52.328;13.070;2023-02-15T10:28:42;20.33;;;11.47;;
12814;SDS011;6472;52.328;13.070;2023-02-15T10:31:18;24.13;;;12.27;;
12814;SDS011;6472;52.328;13.070;2023-02-15T10:36:54;26.67;;;12.20;;
12814;SDS011;6472;52.328;13.070;2023-02-15T10:39:37;25.33;;;12.43;;
12814;SDS011;6472;52.328;13.070;2023-02-15T10:42:11;23.93;;;12.33;;
12814;SDS011;6472;52.328;13.070;2023-02-15T10:44:51;21.97;;;11.57;;
12814;SDS011;6472;52.328;13.070;2023-02-15T10:47:41;24.30;;;11.17;;
12814;SDS011;6472;52.328;13.070;2023-02-15T10:50:32;24.13;;;13.37;;
12814;SDS011;6472;52.328;13.070;2023-02-15T10:53:12;24.20;;;11.17;;
12814;SDS011;6472;52.328;13.070;2023-02-15T10:55:53;24.57;;;11.03;;
12814;SDS011;6472;52.328;13.070;2023-02-15T10:58:29;21.23;;;10.77;;
12814;SDS011;6472;52.328;13.070;2023-02-15T11:01:08;22.23;;;11.63;;
12814;SDS011;6472;52.328;13.070;2023-02-15T11:03:50;23.30;;;11.73;;
12814;SDS011;6472;52.328;13.070;2023-02-15T11:06:33;19.80;;;11.23;;
12814;SDS011;6472;52.328;13.070;2023-02-15T11:09:04;24.00;;;12.57;;
12814;SDS011;6472;52.328;13.070;2023-02-15T11:11:39;21.10;;;10.87;;
12814;SDS011;6472;52.328;13.070;2023-02-15T11:14:12;26.43;;;12.47;;
12814;SDS011;6472;52.328;13.070;2023-02-15T11:16:44;20.90;;;11.03;;
12814;SDS011;6472;52.328;13.070;2023-02-15T11:19:17;19.63;;;11.87;;
12814;SDS011;6472;52.328;13.070;2023-02-15T11:21:49;29.80;;;12.93;;
12814;SDS011;6472;52.328;13.070;2023-02-15T11:24:21;19.47;;;10.00;;
12814;SDS011;6472;52.328;13.070;2023-02-15T11:26:56;21.13;;;11.00;;
12814;SDS011;6472;52.328;13.070;2023-02-15T11:29:29;24.80;;;11.43;;
12814;SDS011;6472;52.328;13.070;2023-02-15T11:32:01;21.83;;;10.10;;
12814;SDS011;6472;52.328;13.070;2023-02-15T11:34:40;25.60;;;10.87;;
12814;SDS011;6472;52.328;13.070;2023-02-15T11:37:16;19.30;;;10.03;;
12814;SDS011;6472;52.328;13.070;2023-02-15T11:39:50;16.13;;;9.23;;
12814;SDS011;6472;52.328;13.070;2023-02-15T11:42:23;21.10;;;11.50;;
12814;SDS011;6472;52.328;13.070;2023-02-15T11:44:55;17.80;;;9.73;;
12814;SDS011;6472;52.328;13.070;2023-02-15T11:47:27;21.23;;;9.67;;
12814;SDS011;6472;52.328;13.070;2023-02-15T11:49:55;18.53;;;10.17;;
12814;SDS011;6472;52.328;13.070;2023-02-15T11:52:24;14.63;;;8.57;;
12814;SDS011;6472;52.328;13.070;2023-02-15T11:54:52;12.53;;;7.90;;
12814;SDS011;6472;52.328;13.070;2023-02-15T11:57:23;19.00;;;9.10;;
12814;SDS011;6472;52.328;13.070;2023-02-15T11:59:56;18.37;;;8.87;;
12814;SDS011;6472;52.328;13.070;2023-02-15T12:02:31;16.40;;;7.97;;
12814;SDS011;6472;52.328;13.070;2023-02-15T12:05:01;15.93;;;8.20;;
12814;SDS011;6472;52.328;13.070;2023-02-15T12:07:37;15.63;;;8.53;;
12814;SDS011;6472;52.328;13.070;2023-02-15T12:10:14;11.03;;;7.57;;
12814;SDS011;6472;52.328;13.070;2023-02-15T12:12:48;15.50;;;7.93;;
12814;SDS011;6472;52.328;13.070;2023-02-15T12:15:34;14.60;;;8.73;;
12814;SDS011;6472;52.328;13.070;2023-02-15T12:18:03;14.97;;;8.10;;
12814;SDS011;6472;52.328;13.070;2023-02-15T12:20:33;12.00;;;6.97;;
12814;SDS011;6472;52.328;13.070;2023-02-15T12:23:11;15.33;;;8.87;;
12814;SDS011;6472;52.328;13.070;2023-02-15T12:25:42;13.37;;;7.40;;
12814;SDS011;6472;52.328;13.070;2023-02-15T12:28:30;13.70;;;7.10;;
12814;SDS011;6472;52.328;13.070;2023-02-15T12:31:07;12.17;;;6.50;;
12814;SDS011;6472;52.328;13.070;2023-02-15T12:33:46;12.20;;;7.33;;
12814;SDS011;6472;52.328;13.070;2023-02-15T12:36:17;15.87;;;7.73;;
12814;SDS011;6472;52.328;13.070;2023-02-15T12:39:02;15.70;;;7.67;;
12814;SDS011;6472;52.328;13.070;2023-02-15T12:41:33;11.77;;;5.87;;
12814;SDS011;6472;52.328;13.070;2023-02-15T12:44:05;10.77;;;6.03;;
12814;SDS011;6472;52.328;13.070;2023-02-15T12:46:39;10.40;;;6.63;;
12814;SDS011;6472;52.328;13.070;2023-02-15T12:49:16;12.47;;;6.90;;
12814;SDS011;6472;52.328;13.070;2023-02-15T12:51:47;9.50;;;6.03;;
12814;SDS011;6472;52.328;13.070;2023-02-15T12:54:31;8.20;;;5.70;;
12814;SDS011;6472;52.328;13.070;2023-02-15T12:57:14;11.53;;;5.93;;
12814;SDS011;6472;52.328;13.070;2023-02-15T13:00:04;10.20;;;6.23;;
12814;SDS011;6472;52.328;13.070;2023-02-15T13:02:36;9.73;;;6.57;;
12814;SDS011;6472;52.328;13.070;2023-02-15T13:05:16;6.50;;;5.77;;
12814;SDS011;6472;52.328;13.070;2023-02-15T13:07:51;10.30;;;6.13;;
12814;SDS011;6472;52.328;13.070;2023-02-15T13:10:33;7.80;;;5.30;;
12814;SDS011;6472;52.328;13.070;2023-02-15T13:13:09;12.60;;;6.47;;
12814;SDS011;6472;52.328;13.070;2023-02-15T13:15:50;7.50;;;5.47;;
12814;SDS011;6472;52.328;13.070;2023-02-15T13:18:23;9.10;;;5.97;;
12814;SDS011;6472;52.328;13.070;2023-02-15T13:21:10;9.27;;;5.77;;
12814;SDS011;6472;52.328;13.070;2023-02-15T13:23:49;9.67;;;5.53;;
12814;SDS011;6472;52.328;13.070;2023-02-15T13:26:25;8.63;;;6.40;;
12814;SDS011;6472;52.328;13.070;2023-02-15T13:29:42;8.27;;;5.97;;
12814;SDS011;6472;52.328;13.070;2023-02-15T13:32:25;11.30;;;5.73;;
12814;SDS011;6472;52.328;13.070;2023-02-15T13:34:57;9.07;;;6.13;;
12814;SDS011;6472;52.328;13.070;2023-02-15T13:37:45;9.10;;;5.30;;
12814;SDS011;6472;52.328;13.070;2023-02-15T13:40:44;9.63;;;5.80;;
12814;SDS011;6472;52.328;13.070;2023-02-15T13:46:42;11.40;;;6.20;;
12814;SDS011;6472;52.328;13.070;2023-02-15T13:49:24;12.50;;;7.00;;
12814;SDS011;6472;52.328;13.070;2023-02-15T13:52:03;10.90;;;6.57;;
12814;SDS011;6472;52.328;13.070;2023-02-15T13:54:47;10.03;;;5.80;;
12814;SDS011;6472;52.328;13.070;2023-02-15T13:57:29;9.53;;;6.63;;
12814;SDS011;6472;52.328;13.070;2023-02-15T14:00:12;10.87;;;6.30;;
12814;SDS011;6472;52.328;13.070;2023-02-15T14:05:53;9.40;;;6.00;;
12814;SDS011;6472;52.328;13.070;2023-02-15T14:08:35;10.77;;;6.87;;
12814;SDS011;6472;52.328;13.070;2023-02-15T14:11:15;8.07;;;6.13;;
12814;SDS011;6472;52.328;13.070;2023-02-15T14:13:51;11.27;;;6.83;;
12814;SDS011;6472;52.328;13.070;2023-02-15T14:16:33;9.57;;;5.97;;
12814;SDS011;6472;52.328;13.070;2023-02-15T14:19:19;8.43;;;5.40;;
12814;SDS011;6472;52.328;13.070;2023-02-15T14:21:56;9.27;;;6.63;;
12814;SDS011;6472;52.328;13.070;2023-02-15T14:24:33;10.23;;;5.43;;
12814;SDS011;6472;52.328;13.070;2023-02-15T14:27:12;13.93;;;6.67;;
12814;SDS011;6472;52.328;13.070;2023-02-15T14:29:47;10.23;;;6.67;;
12814;SDS011;6472;52.328;13.070;2023-02-15T14:32:20;10.03;;;6.20;;
12814;SDS011;6472;52.328;13.070;2023-02-15T14:34:54;9.97;;;7.13;;
12814;SDS011;6472;52.328;13.070;2023-02-15T14:37:29;9.73;;;5.90;;
12814;SDS011;6472;52.328;13.070;2023-02-15T14:40:06;9.90;;;5.97;;
12814;SDS011;6472;52.328;13.070;2023-02-15T14:43:04;9.10;;;6.40;;
12814;SDS011;6472;52.328;13.070;2023-02-15T14:45:38;8.77;;;6.37;;
12814;SDS011;6472;52.328;13.070;2023-02-15T14:48:12;8.20;;;5.73;;
12814;SDS011;6472;52.328;13.070;2023-02-15T14:50:45;8.70;;;5.23;;
12814;SDS011;6472;52.328;13.070;2023-02-15T14:58:58;11.00;;;6.13;;
12814;SDS011;6472;52.328;13.070;2023-02-15T15:01:36;9.60;;;6.97;;
12814;SDS011;6472;52.328;13.070;2023-02-15T15:04:05;14.13;;;6.13;;
12814;SDS011;6472;52.328;13.070;2023-02-15T15:06:36;10.27;;;6.13;;
12814;SDS011;6472;52.328;13.070;2023-02-15T15:09:12;8.67;;;5.83;;
12814;SDS011;6472;52.328;13.070;2023-02-15T15:11:46;8.73;;;6.07;;
12814;SDS011;6472;52.328;13.070;2023-02-15T15:17:05;7.63;;;5.50;;
12814;SDS011;6472;52.328;13.070;2023-02-15T15:22:26;14.23;;;6.70;;
12814;SDS011;6472;52.328;13.070;2023-02-15T15:24:57;15.17;;;8.70;;
12814;SDS011;6472;52.328;13.070;2023-02-15T15:27:42;14.73;;;7.87;;
12814;SDS011;6472;52.328;13.070;2023-02-15T15:33:25;12.97;;;8.33;;
12814;SDS011;6472;52.328;13.070;2023-02-15T15:36:27;15.23;;;7.03;;